Time;durP1;ratioP1;P1;durP2;ratioP2;P2;SDS_P1;SDS_P2;PMS_P1;PMS_P2;Temp;Humidity;BMP_temperature;BMP_pressure;BME280_temperature;BME280_humidity;BME280_pressure;Samples;Min_cycle;Max_cycle;Signal;HPM_P1;HPM_P2
2022/08/13 00:01:24;;;;;;;;;;;12.30;99.90;;;;;;5051357;28;20266;-73
2022/08/13 00:03:52;;;;;;;;;;;12.20;99.90;;;;;;5050720;28;19915;-73
2022/08/13 00:09:11;;;;;;;;;;;12.10;99.90;;;;;;5046536;28;20355;-73
2022/08/13 00:14:23;;;;;;;;;;;12.10;99.90;;;;;;5051150;28;19915;-73
2022/08/13 00:16:49;;;;;;;;;;;12.10;99.90;;;;;;5051433;28;19909;-73
2022/08/13 00:19:15;;;;;;;;;;;12.00;99.90;;;;;;5051623;28;20396;-73
2022/08/13 00:21:41;;;;;;;;;;;12.10;99.90;;;;;;5051967;28;20191;-73
2022/08/13 00:24:06;;;;;;;;;;;12.10;99.90;;;;;;5057314;28;19909;-73
2022/08/13 00:26:33;;;;;;;;;;;12.00;99.90;;;;;;5051256;28;19919;-73
2022/08/13 00:29:00;;;;;;;;;;;12.00;99.90;;;;;;5051229;28;19955;-73
2022/08/13 00:31:26;;;;;;;;;;;12.00;99.90;;;;;;5050992;28;19974;-73
2022/08/13 00:33:51;;;;;;;;;;;11.80;99.90;;;;;;5050708;28;20369;-73
2022/08/13 00:36:17;;;;;;;;;;;11.80;99.90;;;;;;5051354;28;19954;-73
2022/08/13 00:38:44;;;;;;;;;;;11.70;99.90;;;;;;5051389;28;19935;-73
2022/08/13 00:41:37;;;;;;;;;;;11.70;99.90;;;;;;5051330;28;19947;-73
2022/08/13 00:43:56;;;;;;;;;;;11.70;99.90;;;;;;5050448;28;19909;-73
2022/08/13 00:46:21;;;;;;;;;;;11.70;99.90;;;;;;5051398;28;20031;-73
2022/08/13 00:48:47;;;;;;;;;;;11.60;99.90;;;;;;5051027;28;20028;-72
2022/08/13 00:51:15;;;;;;;;;;;11.60;99.90;;;;;;5050987;28;20365;-72
2022/08/13 00:53:40;;;;;;;;;;;11.70;99.90;;;;;;5049584;28;19916;-72
2022/08/13 00:56:08;;;;;;;;;;;11.60;99.90;;;;;;5051104;28;19909;-72
2022/08/13 00:58:34;;;;;;;;;;;11.60;99.90;;;;;;5051128;28;19916;-72
2022/08/13 01:01:00;;;;;;;;;;;11.70;99.90;;;;;;5051174;28;19970;-72
2022/08/13 01:03:29;;;;;;;;;;;11.70;99.90;;;;;;5050043;28;19913;-72
2022/08/13 01:05:58;;;;;;;;;;;11.60;99.90;;;;;;5051234;28;19913;-72
2022/08/13 01:08:24;;;;;;;;;;;11.70;99.90;;;;;;5050850;28;19924;-72
2022/08/13 01:10:49;;;;;;;;;;;11.60;99.90;;;;;;5051200;28;20657;-72
2022/08/13 01:13:16;;;;;;;;;;;11.50;99.90;;;;;;5049897;28;20395;-72
2022/08/13 01:15:42;;;;;;;;;;;11.30;99.90;;;;;;5050720;28;19962;-72
2022/08/13 01:18:10;;;;;;;;;;;11.30;99.90;;;;;;5051060;28;20313;-73
2022/08/13 01:20:58;;;;;;;;;;;11.20;99.90;;;;;;5051021;28;19909;-73
2022/08/13 01:23:24;;;;;;;;;;;11.20;99.90;;;;;;5055271;28;20316;-73
2022/08/13 01:25:50;;;;;;;;;;;11.20;99.90;;;;;;5054580;28;19917;-73
2022/08/13 01:28:16;;;;;;;;;;;11.20;99.90;;;;;;5054683;28;19937;-73
2022/08/13 01:30:46;;;;;;;;;;;11.20;99.90;;;;;;5048115;28;19908;-73
2022/08/13 01:33:14;;;;;;;;;;;11.10;99.90;;;;;;5046931;28;19913;-73
2022/08/13 01:35:40;;;;;;;;;;;11.00;99.90;;;;;;5054482;28;20008;-73
2022/08/13 01:38:06;;;;;;;;;;;10.80;99.90;;;;;;5054510;28;19948;-73
2022/08/13 01:40:31;;;;;;;;;;;10.80;99.90;;;;;;5048037;28;19913;-73
2022/08/13 01:42:58;;;;;;;;;;;10.70;99.90;;;;;;5053806;28;19909;-73
2022/08/13 01:45:24;;;;;;;;;;;10.70;99.90;;;;;;5053636;28;19920;-72
2022/08/13 01:50:35;;;;;;;;;;;10.70;99.90;;;;;;5054309;28;19916;-72
2022/08/13 01:53:05;;;;;;;;;;;10.70;99.90;;;;;;5054570;28;20226;-73
2022/08/13 01:55:38;;;;;;;;;;;10.70;99.90;;;;;;5049632;28;19995;-73
2022/08/13 01:58:05;;;;;;;;;;;10.70;99.90;;;;;;5054158;28;19913;-73
2022/08/13 02:00:31;;;;;;;;;;;10.60;99.90;;;;;;5054003;28;20386;-73
2022/08/13 02:03:01;;;;;;;;;;;10.60;99.90;;;;;;5053159;28;19913;-73
2022/08/13 02:05:27;;;;;;;;;;;10.50;99.90;;;;;;5053431;28;19920;-72
2022/08/13 02:07:53;;;;;;;;;;;10.50;99.90;;;;;;5052516;28;19916;-72
2022/08/13 02:10:19;;;;;;;;;;;10.60;99.90;;;;;;5053856;28;19916;-72
2022/08/13 02:12:46;;;;;;;;;;;10.70;99.90;;;;;;5053344;28;20007;-72
2022/08/13 02:15:12;;;;;;;;;;;10.80;99.90;;;;;;5053153;28;19913;-72
2022/08/13 02:17:41;;;;;;;;;;;10.70;99.90;;;;;;5053375;28;20332;-73
2022/08/13 02:20:07;;;;;;;;;;;10.70;99.90;;;;;;5053949;28;19928;-72
2022/08/13 02:22:33;;;;;;;;;;;10.60;99.90;;;;;;5056134;28;20038;-72
2022/08/13 02:25:01;;;;;;;;;;;10.60;99.90;;;;;;5052600;28;20019;-72
2022/08/13 02:27:27;;;;;;;;;;;10.40;99.90;;;;;;5052322;28;20385;-72
2022/08/13 02:29:54;;;;;;;;;;;10.40;99.90;;;;;;5050878;28;19999;-72
2022/08/13 02:32:20;;;;;;;;;;;10.30;99.90;;;;;;5052770;28;19909;-73
2022/08/13 02:34:50;;;;;;;;;;;10.30;99.90;;;;;;5052206;28;19909;-72
2022/08/13 02:37:16;;;;;;;;;;;10.40;99.90;;;;;;5053328;28;19909;-73
2022/08/13 02:39:43;;;;;;;;;;;10.20;99.90;;;;;;5052094;28;20042;-73
2022/08/13 02:42:09;;;;;;;;;;;10.20;99.90;;;;;;5052539;28;19916;-72
2022/08/13 02:44:35;;;;;;;;;;;10.20;99.90;;;;;;5052590;28;19917;-72
2022/08/13 02:47:03;;;;;;;;;;;10.10;99.90;;;;;;5053045;28;20266;-73
2022/08/13 02:49:28;;;;;;;;;;;10.00;99.90;;;;;;5052774;28;19924;-73
2022/08/13 02:51:54;;;;;;;;;;;10.10;99.90;;;;;;5058406;28;19931;-73
2022/08/13 02:54:22;;;;;;;;;;;10.20;99.90;;;;;;5055067;28;19913;-73
2022/08/13 02:56:48;;;;;;;;;;;10.20;99.90;;;;;;5052912;28;20427;-73
2022/08/13 02:59:13;;;;;;;;;;;10.20;99.90;;;;;;5052790;28;19909;-73
2022/08/13 03:01:40;;;;;;;;;;;10.20;99.90;;;;;;5052557;28;19909;-72
2022/08/13 03:04:09;;;;;;;;;;;10.10;99.90;;;;;;5052119;28;20037;-73
2022/08/13 03:06:34;;;;;;;;;;;10.00;99.90;;;;;;5050890;28;19913;-72
2022/08/13 03:09:01;;;;;;;;;;;10.00;99.90;;;;;;5052528;28;19916;-72
2022/08/13 03:11:32;;;;;;;;;;;10.10;99.90;;;;;;5052183;28;19909;-72
2022/08/13 03:14:05;;;;;;;;;;;10.00;99.90;;;;;;5052174;28;19995;-73
2022/08/13 03:16:31;;;;;;;;;;;9.90;99.90;;;;;;5052545;28;19909;-73
2022/08/13 03:18:58;;;;;;;;;;;10.00;99.90;;;;;;5052328;28;20389;-73
2022/08/13 03:21:28;;;;;;;;;;;10.10;99.90;;;;;;5049818;28;19909;-73
2022/08/13 03:23:53;;;;;;;;;;;10.10;99.90;;;;;;5062846;28;19909;-72
2022/08/13 03:26:20;;;;;;;;;;;9.90;99.90;;;;;;5052393;28;19970;-73
2022/08/13 03:28:46;;;;;;;;;;;9.80;99.90;;;;;;5052314;28;19947;-72
2022/08/13 03:31:12;;;;;;;;;;;10.00;99.90;;;;;;5052180;28;19994;-72
2022/08/13 03:33:38;;;;;;;;;;;10.00;99.90;;;;;;5051256;28;20328;-73
2022/08/13 03:36:04;;;;;;;;;;;10.00;99.90;;;;;;5051802;28;19995;-73
2022/08/13 03:38:30;;;;;;;;;;;9.90;99.90;;;;;;5052052;28;19952;-73
2022/08/13 03:41:02;;;;;;;;;;;9.90;99.90;;;;;;5051866;28;19909;-73
2022/08/13 03:43:28;;;;;;;;;;;10.00;99.90;;;;;;5050209;28;20301;-73
2022/08/13 03:45:54;;;;;;;;;;;10.00;99.90;;;;;;5051213;28;19913;-73
2022/08/13 03:48:21;;;;;;;;;;;9.80;99.90;;;;;;5051841;28;19909;-73
2022/08/13 03:50:48;;;;;;;;;;;9.80;99.90;;;;;;5051681;28;19916;-73
2022/08/13 03:53:15;;;;;;;;;;;9.80;99.90;;;;;;5050460;28;19908;-73
2022/08/13 03:55:42;;;;;;;;;;;9.90;99.90;;;;;;5051930;28;20470;-73
2022/08/13 03:58:08;;;;;;;;;;;9.90;99.90;;;;;;5048578;28;19932;-73
2022/08/13 04:00:47;;;;;;;;;;;9.90;99.90;;;;;;5051575;28;19908;-73
2022/08/13 04:03:16;;;;;;;;;;;9.90;99.90;;;;;;5050513;28;19908;-73
2022/08/13 04:05:43;;;;;;;;;;;9.80;99.90;;;;;;5051701;28;19913;-73
2022/08/13 04:08:10;;;;;;;;;;;9.90;99.90;;;;;;5051542;28;19920;-73
2022/08/13 04:10:36;;;;;;;;;;;10.00;99.90;;;;;;5051775;28;19909;-73
2022/08/13 04:13:03;;;;;;;;;;;10.00;99.90;;;;;;5050866;28;20291;-73
2022/08/13 04:15:30;;;;;;;;;;;9.90;99.90;;;;;;5051137;28;19983;-73
2022/08/13 04:17:55;;;;;;;;;;;9.80;99.90;;;;;;5050236;28;19909;-73
2022/08/13 04:20:21;;;;;;;;;;;9.70;99.90;;;;;;5051353;28;19916;-73
2022/08/13 04:22:47;;;;;;;;;;;9.70;99.90;;;;;;5049739;28;20003;-73
2022/08/13 04:25:13;;;;;;;;;;;9.80;99.90;;;;;;5051027;28;19919;-73
2022/08/13 04:27:38;;;;;;;;;;;9.90;99.90;;;;;;5055305;28;19909;-73
2022/08/13 04:30:05;;;;;;;;;;;9.90;99.90;;;;;;5051238;28;20369;-73
2022/08/13 04:32:40;;;;;;;;;;;9.80;99.90;;;;;;5050853;28;19913;-72
2022/08/13 04:35:06;;;;;;;;;;;9.80;99.90;;;;;;5051397;28;19913;-73
2022/08/13 04:37:32;;;;;;;;;;;9.90;99.90;;;;;;5052042;28;19920;-73
2022/08/13 04:39:57;;;;;;;;;;;10.00;99.90;;;;;;5051498;28;20289;-73
2022/08/13 04:42:23;;;;;;;;;;;10.00;99.90;;;;;;5051096;28;19909;-73
2022/08/13 04:44:48;;;;;;;;;;;10.00;99.90;;;;;;5050861;28;19912;-75
2022/08/13 04:47:14;;;;;;;;;;;10.00;99.90;;;;;;5051289;28;19916;-73
2022/08/13 04:49:39;;;;;;;;;;;10.00;99.90;;;;;;5051222;28;19919;-74
2022/08/13 04:52:05;;;;;;;;;;;10.10;99.90;;;;;;5051038;28;19967;-73
2022/08/13 04:54:30;;;;;;;;;;;10.20;99.90;;;;;;5050964;28;19909;-73
2022/08/13 04:56:56;;;;;;;;;;;10.20;99.90;;;;;;5046606;28;19931;-73
2022/08/13 04:59:22;;;;;;;;;;;10.30;99.90;;;;;;5060989;28;20000;-73
2022/08/13 05:01:48;;;;;;;;;;;10.40;99.90;;;;;;5053587;28;19974;-73
2022/08/13 05:04:13;;;;;;;;;;;10.40;99.90;;;;;;5054461;28;19995;-73
2022/08/13 05:06:39;;;;;;;;;;;10.40;99.90;;;;;;5055120;28;19920;-73
2022/08/13 05:09:05;;;;;;;;;;;10.50;99.90;;;;;;5055053;28;20282;-73
2022/08/13 05:11:30;;;;;;;;;;;10.60;99.90;;;;;;5051031;28;20428;-73
2022/08/13 05:13:56;;;;;;;;;;;10.80;99.90;;;;;;5057054;28;19931;-73
2022/08/13 05:16:21;;;;;;;;;;;10.90;99.90;;;;;;5056869;28;19913;-72
2022/08/13 05:18:52;;;;;;;;;;;10.90;99.90;;;;;;5056759;28;19916;-73
2022/08/13 05:21:21;;;;;;;;;;;10.90;99.90;;;;;;5055560;28;19909;-73
2022/08/13 05:23:53;;;;;;;;;;;11.10;99.90;;;;;;5055417;28;19959;-73
2022/08/13 05:26:19;;;;;;;;;;;11.10;99.90;;;;;;5054344;28;19940;-73
2022/08/13 05:28:45;;;;;;;;;;;11.20;99.90;;;;;;5053248;28;19909;-72
2022/08/13 05:31:11;;;;;;;;;;;11.30;99.90;;;;;;5055213;28;20290;-73
2022/08/13 05:33:36;;;;;;;;;;;11.40;99.90;;;;;;5054632;28;20019;-72
2022/08/13 05:36:03;;;;;;;;;;;11.60;99.90;;;;;;5054629;28;19915;-72
2022/08/13 05:38:30;;;;;;;;;;;11.70;99.90;;;;;;5055314;28;19944;-72
2022/08/13 05:40:56;;;;;;;;;;;11.90;99.90;;;;;;5054532;28;19950;-72
2022/08/13 05:43:24;;;;;;;;;;;12.00;99.90;;;;;;5052416;28;19925;-73
2022/08/13 05:45:57;;;;;;;;;;;12.10;99.90;;;;;;5053388;28;19986;-73
2022/08/13 05:48:27;;;;;;;;;;;12.40;99.90;;;;;;5055586;28;20275;-73
2022/08/13 05:50:53;;;;;;;;;;;12.80;99.90;;;;;;5055248;28;19909;-73
2022/08/13 05:53:18;;;;;;;;;;;12.70;99.90;;;;;;5054435;28;20366;-72
2022/08/13 05:55:44;;;;;;;;;;;12.70;99.90;;;;;;5055558;28;19962;-72
2022/08/13 05:58:13;;;;;;;;;;;12.90;99.90;;;;;;5053099;28;19909;-72
2022/08/13 06:03:27;;;;;;;;;;;13.20;99.90;;;;;;5048922;28;20215;-72
2022/08/13 06:05:54;;;;;;;;;;;13.20;99.90;;;;;;5054567;28;19976;-72
2022/08/13 06:08:28;;;;;;;;;;;13.50;99.90;;;;;;5053972;28;19952;-72
2022/08/13 06:10:57;;;;;;;;;;;13.60;99.90;;;;;;5053263;28;19913;-72
2022/08/13 06:13:24;;;;;;;;;;;13.70;99.90;;;;;;5053550;28;20063;-72
2022/08/13 06:15:57;;;;;;;;;;;13.80;99.90;;;;;;5055378;28;19916;-72
2022/08/13 06:18:24;;;;;;;;;;;14.10;99.90;;;;;;5054344;28;19940;-72
2022/08/13 06:20:51;;;;;;;;;;;14.30;99.90;;;;;;5055504;28;20371;-72
2022/08/13 06:23:17;;;;;;;;;;;14.50;99.90;;;;;;5053234;28;19909;-72
2022/08/13 06:25:42;;;;;;;;;;;14.70;99.90;;;;;;5054613;28;19920;-73
2022/08/13 06:28:10;;;;;;;;;;;14.60;99.90;;;;;;5052021;28;19912;-73
2022/08/13 06:30:37;;;;;;;;;;;14.80;99.90;;;;;;5053981;28;19913;-73
2022/08/13 06:33:03;;;;;;;;;;;15.20;99.90;;;;;;5053942;28;19913;-73
2022/08/13 06:35:31;;;;;;;;;;;15.30;99.90;;;;;;5053983;28;19913;-73
2022/08/13 06:37:57;;;;;;;;;;;15.40;99.90;;;;;;5054063;28;19916;-73
2022/08/13 06:40:23;;;;;;;;;;;15.50;99.90;;;;;;5053940;28;19909;-72
2022/08/13 06:42:51;;;;;;;;;;;15.50;99.90;;;;;;5053420;28;19936;-73
2022/08/13 06:45:19;;;;;;;;;;;15.70;99.90;;;;;;5053475;28;19913;-73
2022/08/13 06:47:45;;;;;;;;;;;16.00;99.90;;;;;;5054821;28;20285;-73
2022/08/13 06:50:11;;;;;;;;;;;16.10;99.90;;;;;;5053676;28;19908;-72
2022/08/13 06:52:37;;;;;;;;;;;16.10;99.90;;;;;;5053791;28;19908;-72
2022/08/13 06:55:06;;;;;;;;;;;16.40;99.90;;;;;;5054137;28;19909;-73
2022/08/13 06:57:33;;;;;;;;;;;16.50;99.90;;;;;;5057430;28;19938;-73
2022/08/13 06:59:58;;;;;;;;;;;16.70;99.90;;;;;;5054905;28;19908;-73
2022/08/13 07:02:24;;;;;;;;;;;16.90;99.90;;;;;;5055161;28;19909;-74
2022/08/13 07:04:50;;;;;;;;;;;17.10;99.90;;;;;;5054759;28;19992;-71
2022/08/13 07:07:17;;;;;;;;;;;17.30;99.90;;;;;;5054199;28;19915;-72
2022/08/13 07:09:44;;;;;;;;;;;17.60;99.90;;;;;;5055797;28;19917;-72
2022/08/13 07:12:11;;;;;;;;;;;17.90;99.90;;;;;;5054209;28;19916;-73
2022/08/13 07:14:40;;;;;;;;;;;18.00;99.90;;;;;;5053549;28;19912;-73
2022/08/13 07:17:06;;;;;;;;;;;18.30;99.90;;;;;;5053880;28;19952;-74
2022/08/13 07:19:33;;;;;;;;;;;18.40;99.90;;;;;;5053615;28;19912;-73
2022/08/13 07:21:58;;;;;;;;;;;18.50;99.90;;;;;;5053475;28;20260;-73
2022/08/13 07:24:26;;;;;;;;;;;18.80;99.90;;;;;;5051548;28;19963;-73
2022/08/13 07:26:52;;;;;;;;;;;20.20;98.80;;;;;;5052559;28;19917;-72
2022/08/13 07:29:19;;;;;;;;;;;22.10;94.00;;;;;;5053046;28;19915;-74
2022/08/13 07:31:45;;;;;;;;;;;22.90;89.80;;;;;;5056320;28;20221;-74
2022/08/13 07:34:10;;;;;;;;;;;23.50;86.20;;;;;;5052061;28;19913;-74
2022/08/13 07:36:37;;;;;;;;;;;23.70;82.40;;;;;;5054059;28;19916;-73
2022/08/13 07:39:10;;;;;;;;;;;23.40;82.10;;;;;;5053612;28;19909;-74
2022/08/13 07:41:40;;;;;;;;;;;23.90;79.50;;;;;;5054497;28;19908;-74
2022/08/13 07:44:07;;;;;;;;;;;23.80;78.70;;;;;;5053035;28;19997;-72
2022/08/13 07:46:34;;;;;;;;;;;24.00;78.60;;;;;;5051714;28;19913;-73
2022/08/13 07:49:00;;;;;;;;;;;24.70;76.70;;;;;;5052207;28;19912;-73
2022/08/13 07:51:26;;;;;;;;;;;25.10;73.90;;;;;;5047928;28;19913;-73
2022/08/13 07:53:54;;;;;;;;;;;25.70;74.10;;;;;;5051930;28;19913;-72
2022/08/13 07:56:21;;;;;;;;;;;25.90;72.40;;;;;;5050956;28;20389;-73
2022/08/13 07:58:47;;;;;;;;;;;25.90;71.90;;;;;;5056603;28;19932;-73
2022/08/13 08:01:13;;;;;;;;;;;25.80;69.80;;;;;;5052674;28;19909;-72
2022/08/13 08:03:39;;;;;;;;;;;25.60;70.30;;;;;;5052298;28;19913;-73
2022/08/13 08:06:05;;;;;;;;;;;25.40;71.40;;;;;;5052744;28;20380;-74
2022/08/13 08:08:33;;;;;;;;;;;25.80;70.10;;;;;;5052499;28;20007;-73
2022/08/13 08:11:00;;;;;;;;;;;26.50;67.90;;;;;;5052921;28;19915;-73
2022/08/13 08:13:26;;;;;;;;;;;26.70;67.50;;;;;;5051798;28;19912;-74
2022/08/13 08:15:51;;;;;;;;;;;26.80;65.30;;;;;;5052343;28;20007;-74
2022/08/13 08:18:17;;;;;;;;;;;27.10;64.50;;;;;;5046110;28;20445;-73
2022/08/13 08:20:42;;;;;;;;;;;26.20;65.00;;;;;;5052580;28;19912;-72
2022/08/13 08:23:11;;;;;;;;;;;26.90;66.80;;;;;;5051432;28;19913;-73
2022/08/13 08:25:38;;;;;;;;;;;27.60;64.50;;;;;;5051741;28;19948;-73
2022/08/13 08:28:04;;;;;;;;;;;27.80;63.50;;;;;;5051471;28;19909;-73
2022/08/13 08:30:29;;;;;;;;;;;27.20;64.70;;;;;;5052824;28;19909;-73
2022/08/13 08:32:55;;;;;;;;;;;27.80;63.60;;;;;;5058392;28;19909;-74
2022/08/13 08:35:21;;;;;;;;;;;28.60;62.80;;;;;;5059879;28;19909;-72
2022/08/13 08:43:27;;;;;;;;;;;26.10;66.00;;;;;;5060125;28;19920;-73
2022/08/13 08:45:53;;;;;;;;;;;27.00;64.40;;;;;;5059821;28;19936;-74
2022/08/13 08:48:19;;;;;;;;;;;27.60;63.20;;;;;;5059866;28;20377;-72
2022/08/13 08:50:44;;;;;;;;;;;27.30;61.70;;;;;;5059278;28;19916;-73
2022/08/13 08:53:20;;;;;;;;;;;27.70;61.70;;;;;;5058617;28;20286;-73
2022/08/13 08:55:46;;;;;;;;;;;28.10;60.30;;;;;;5059818;28;20366;-73
2022/08/13 08:58:12;;;;;;;;;;;26.90;61.10;;;;;;5059146;28;20427;-73
2022/08/13 09:00:39;;;;;;;;;;;27.40;62.70;;;;;;5059499;28;19932;-73
2022/08/13 09:03:08;;;;;;;;;;;27.80;62.30;;;;;;5057712;28;20003;-72
2022/08/13 09:05:34;;;;;;;;;;;26.30;62.30;;;;;;5058739;28;19966;-74
2022/08/13 09:08:00;;;;;;;;;;;26.00;66.80;;;;;;5060379;28;19917;-73
2022/08/13 09:10:26;;;;;;;;;;;25.20;67.00;;;;;;5059763;28;19913;-75
2022/08/13 09:12:52;;;;;;;;;;;24.70;68.20;;;;;;5059035;28;20007;-73
2022/08/13 09:15:21;;;;;;;;;;;24.20;71.00;;;;;;5059209;28;20355;-73
2022/08/13 09:17:49;;;;;;;;;;;24.20;72.50;;;;;;5059252;28;20122;-73
2022/08/13 09:20:19;;;;;;;;;;;24.30;72.60;;;;;;5059092;28;19931;-73
2022/08/13 09:22:46;;;;;;;;;;;26.20;67.10;;;;;;5056497;28;19923;-73
2022/08/13 09:25:13;;;;;;;;;;;28.90;63.50;;;;;;5057235;28;19916;-73
2022/08/13 09:27:39;;;;;;;;;;;28.00;60.20;;;;;;5057625;28;19909;-73
2022/08/13 09:30:04;;;;;;;;;;;27.00;63.30;;;;;;5060907;28;19909;-73
2022/08/13 09:32:32;;;;;;;;;;;25.90;64.20;;;;;;5057320;28;19909;-73
2022/08/13 09:34:57;;;;;;;;;;;25.70;67.60;;;;;;5056839;28;19912;-73
2022/08/13 09:37:24;;;;;;;;;;;25.20;65.60;;;;;;5057654;28;19969;-73
2022/08/13 09:39:51;;;;;;;;;;;24.80;69.10;;;;;;5057532;28;19916;-73
2022/08/13 09:42:23;;;;;;;;;;;24.80;69.60;;;;;;5056913;28;19916;-73
2022/08/13 09:44:51;;;;;;;;;;;25.00;66.40;;;;;;5052673;28;20392;-73
2022/08/13 09:47:17;;;;;;;;;;;24.40;67.60;;;;;;5054306;28;19915;-73
2022/08/13 09:49:44;;;;;;;;;;;24.30;69.90;;;;;;5052769;28;19909;-73
2022/08/13 09:52:10;;;;;;;;;;;25.40;69.00;;;;;;5052700;28;19923;-73
2022/08/13 09:54:40;;;;;;;;;;;26.80;64.30;;;;;;5053779;28;19999;-73
2022/08/13 09:57:06;;;;;;;;;;;27.90;63.50;;;;;;5051907;28;20378;-73
2022/08/13 09:59:32;;;;;;;;;;;29.00;61.20;;;;;;5057891;28;19919;-73
2022/08/13 10:01:58;;;;;;;;;;;29.40;56.20;;;;;;5053407;28;19909;-73
2022/08/13 10:04:26;;;;;;;;;;;29.70;57.40;;;;;;5053418;28;19916;-73
2022/08/13 10:06:52;;;;;;;;;;;30.60;55.10;;;;;;5053950;28;19917;-73
2022/08/13 10:09:17;;;;;;;;;;;29.10;57.70;;;;;;5053969;28;19917;-73
2022/08/13 10:11:43;;;;;;;;;;;28.90;56.40;;;;;;5053639;28;19909;-73
2022/08/13 10:14:08;;;;;;;;;;;28.30;57.10;;;;;;5053475;28;19916;-73
2022/08/13 10:16:35;;;;;;;;;;;27.70;56.80;;;;;;5052518;28;19952;-73
2022/08/13 10:19:03;;;;;;;;;;;26.30;59.70;;;;;;5053558;28;19909;-73
2022/08/13 10:21:28;;;;;;;;;;;25.40;62.60;;;;;;5053791;28;20361;-73
2022/08/13 10:23:54;;;;;;;;;;;25.00;63.70;;;;;;5053378;28;19934;-73
2022/08/13 10:26:20;;;;;;;;;;;25.30;64.00;;;;;;5053695;28;19962;-73
2022/08/13 10:28:47;;;;;;;;;;;25.70;63.50;;;;;;5057806;28;19913;-73
2022/08/13 10:31:13;;;;;;;;;;;25.50;62.90;;;;;;5054869;28;19919;-73
2022/08/13 10:33:38;;;;;;;;;;;25.60;64.40;;;;;;5052857;28;19909;-73
2022/08/13 10:36:05;;;;;;;;;;;27.50;63.40;;;;;;5053514;28;19916;-73
2022/08/13 10:38:32;;;;;;;;;;;27.30;61.70;;;;;;5053457;28;19909;-73
2022/08/13 10:41:04;;;;;;;;;;;27.40;60.00;;;;;;5053423;28;20286;-73
2022/08/13 10:43:31;;;;;;;;;;;29.80;57.00;;;;;;5053743;28;19916;-73
2022/08/13 10:45:59;;;;;;;;;;;31.10;52.00;;;;;;5054345;28;19920;-74
2022/08/13 10:48:28;;;;;;;;;;;29.90;51.90;;;;;;5054640;28;19919;-72
2022/08/13 10:50:54;;;;;;;;;;;31.90;54.20;;;;;;5054844;28;19999;-74
2022/08/13 10:56:04;;;;;;;;;;;29.10;52.10;;;;;;5053654;28;19944;-73
2022/08/13 10:58:30;;;;;;;;;;;31.50;49.10;;;;;;5057239;28;19948;-72
2022/08/13 11:00:56;;;;;;;;;;;31.60;48.80;;;;;;5055238;28;19909;-73
2022/08/13 11:03:22;;;;;;;;;;;31.40;48.00;;;;;;5052560;28;19913;-73
2022/08/13 11:05:48;;;;;;;;;;;30.60;50.90;;;;;;5053206;28;19936;-74
2022/08/13 11:08:14;;;;;;;;;;;31.70;49.40;;;;;;5052681;28;19917;-71
2022/08/13 11:10:41;;;;;;;;;;;29.10;49.30;;;;;;5057735;28;19977;-73
2022/08/13 11:13:06;;;;;;;;;;;27.70;53.80;;;;;;5053148;28;20003;-74
2022/08/13 11:15:31;;;;;;;;;;;28.00;55.50;;;;;;5053602;28;19913;-73
2022/08/13 11:17:59;;;;;;;;;;;28.50;55.90;;;;;;5053400;28;19995;-73
2022/08/13 11:20:27;;;;;;;;;;;28.50;54.70;;;;;;5053151;28;19916;-72
2022/08/13 11:22:53;;;;;;;;;;;29.00;53.90;;;;;;5052987;28;19919;-73
2022/08/13 11:25:19;;;;;;;;;;;31.00;50.30;;;;;;5052560;28;19913;-71
2022/08/13 11:27:44;;;;;;;;;;;32.20;50.40;;;;;;5053694;28;19908;-73
2022/08/13 11:30:10;;;;;;;;;;;32.00;49.60;;;;;;5059539;28;20346;-74
2022/08/13 11:32:36;;;;;;;;;;;31.00;48.70;;;;;;5052653;28;20379;-73
2022/08/13 11:35:03;;;;;;;;;;;31.40;49.00;;;;;;5051941;28;20493;-73
2022/08/13 11:37:28;;;;;;;;;;;30.90;49.90;;;;;;5053942;28;19947;-73
2022/08/13 11:39:54;;;;;;;;;;;31.50;49.40;;;;;;5052139;28;19956;-73
2022/08/13 11:42:19;;;;;;;;;;;31.10;49.00;;;;;;5046566;28;19909;-73
2022/08/13 11:44:45;;;;;;;;;;;30.30;50.00;;;;;;5052973;28;19995;-73
2022/08/13 11:47:10;;;;;;;;;;;31.10;49.50;;;;;;5053744;28;19970;-73
2022/08/13 11:49:36;;;;;;;;;;;31.10;49.30;;;;;;5053228;28;19915;-73
2022/08/13 11:52:01;;;;;;;;;;;30.00;50.30;;;;;;5053402;28;19919;-73
2022/08/13 11:54:27;;;;;;;;;;;29.50;51.70;;;;;;5048315;28;20229;-73
2022/08/13 11:56:52;;;;;;;;;;;29.20;51.40;;;;;;5053406;28;19960;-73
2022/08/13 11:59:18;;;;;;;;;;;29.60;52.00;;;;;;5056746;28;19909;-73
2022/08/13 12:01:43;;;;;;;;;;;29.40;52.70;;;;;;5053122;28;19909;-72
2022/08/13 12:04:12;;;;;;;;;;;28.70;50.90;;;;;;5053992;28;19909;-74
2022/08/13 12:06:38;;;;;;;;;;;29.20;51.00;;;;;;5052462;28;20003;-72
2022/08/13 12:09:03;;;;;;;;;;;28.90;50.80;;;;;;5053397;28;19971;-73
2022/08/13 12:11:30;;;;;;;;;;;29.30;51.60;;;;;;5053047;28;20198;-73
2022/08/13 12:13:56;;;;;;;;;;;29.90;50.10;;;;;;5051494;28;20053;-72
2022/08/13 12:16:22;;;;;;;;;;;29.70;49.20;;;;;;5053074;28;19916;-74
2022/08/13 12:18:47;;;;;;;;;;;29.10;50.50;;;;;;5052826;28;20195;-72
2022/08/13 12:21:13;;;;;;;;;;;30.00;49.90;;;;;;5052822;28;20000;-73
2022/08/13 12:23:38;;;;;;;;;;;30.20;49.60;;;;;;5052318;28;19909;-73
2022/08/13 12:26:04;;;;;;;;;;;31.40;48.80;;;;;;5052946;28;19912;-74
2022/08/13 12:28:29;;;;;;;;;;;31.50;47.10;;;;;;5052610;28;19995;-72
2022/08/13 12:31:02;;;;;;;;;;;32.50;46.90;;;;;;5052607;28;19909;-73
2022/08/13 12:33:29;;;;;;;;;;;33.10;43.80;;;;;;5051668;28;19909;-74
2022/08/13 12:35:55;;;;;;;;;;;34.00;43.90;;;;;;5052165;28;19954;-73
2022/08/13 12:38:20;;;;;;;;;;;35.30;41.20;;;;;;5052655;28;19995;-73
2022/08/13 12:40:46;;;;;;;;;;;35.40;40.90;;;;;;5052824;28;20367;-73
2022/08/13 12:43:12;;;;;;;;;;;35.40;39.80;;;;;;5049771;28;19920;-74
2022/08/13 12:45:38;;;;;;;;;;;36.50;38.50;;;;;;5052415;28;19913;-73
2022/08/13 12:48:04;;;;;;;;;;;36.60;38.00;;;;;;5052452;28;19932;-75
2022/08/13 12:50:29;;;;;;;;;;;32.10;42.10;;;;;;5052989;28;20354;-73
2022/08/13 12:52:55;;;;;;;;;;;31.20;44.50;;;;;;5051942;28;19908;-73
2022/08/13 12:55:20;;;;;;;;;;;29.00;49.70;;;;;;5052267;28;20251;-73
2022/08/13 12:57:46;;;;;;;;;;;30.70;46.80;;;;;;5052510;28;19992;-75
2022/08/13 13:00:12;;;;;;;;;;;31.00;46.80;;;;;;5051707;28;19920;-72
2022/08/13 13:02:39;;;;;;;;;;;34.20;42.80;;;;;;5052123;28;19909;-72
2022/08/13 13:05:04;;;;;;;;;;;34.10;40.70;;;;;;5051664;28;19913;-73
2022/08/13 13:07:30;;;;;;;;;;;34.70;40.40;;;;;;5052257;28;19913;-73
2022/08/13 13:09:58;;;;;;;;;;;34.60;38.80;;;;;;5052251;28;19920;-75
2022/08/13 13:12:23;;;;;;;;;;;35.10;38.90;;;;;;5052121;28;20011;-74
2022/08/13 13:14:49;;;;;;;;;;;35.70;39.50;;;;;;5052005;28;19932;-72
2022/08/13 13:17:14;;;;;;;;;;;33.90;40.40;;;;;;5052572;28;20366;-74
2022/08/13 13:19:39;;;;;;;;;;;34.00;40.90;;;;;;5055661;28;19908;-73
2022/08/13 13:22:05;;;;;;;;;;;33.70;41.50;;;;;;5055487;28;19909;-72
2022/08/13 13:24:31;;;;;;;;;;;31.80;42.50;;;;;;5055660;28;19909;-72
2022/08/13 13:26:57;;;;;;;;;;;30.60;45.30;;;;;;5055779;28;19920;-73
2022/08/13 13:29:23;;;;;;;;;;;30.30;46.30;;;;;;5058358;28;19909;-72
2022/08/13 13:31:48;;;;;;;;;;;29.50;46.40;;;;;;5055588;28;19909;-73
2022/08/13 13:34:16;;;;;;;;;;;28.10;51.50;;;;;;5054423;28;19920;-73
2022/08/13 13:36:41;;;;;;;;;;;29.00;48.80;;;;;;5055270;28;19912;-73
2022/08/13 13:39:07;;;;;;;;;;;30.20;45.80;;;;;;5055373;28;19996;-73
2022/08/13 13:41:32;;;;;;;;;;;30.30;45.20;;;;;;5054398;28;20378;-73
2022/08/13 13:43:58;;;;;;;;;;;31.20;43.50;;;;;;5055066;28;19909;-74
2022/08/13 13:46:23;;;;;;;;;;;31.90;42.40;;;;;;5055097;28;19967;-73
2022/08/13 13:48:49;;;;;;;;;;;30.90;43.40;;;;;;5055372;28;19908;-73
2022/08/13 13:51:14;;;;;;;;;;;31.10;43.70;;;;;;5053186;28;19917;-73
2022/08/13 13:53:43;;;;;;;;;;;31.00;42.20;;;;;;5054286;28;20369;-73
2022/08/13 13:56:12;;;;;;;;;;;31.30;42.20;;;;;;5053998;28;19996;-73
2022/08/13 13:58:38;;;;;;;;;;;32.10;42.00;;;;;;5051671;28;19936;-75
2022/08/13 14:01:04;;;;;;;;;;;34.40;40.10;;;;;;5054753;28;19916;-75
2022/08/13 14:03:30;;;;;;;;;;;35.10;37.10;;;;;;5054162;28;19909;-75
2022/08/13 14:05:56;;;;;;;;;;;35.30;37.60;;;;;;5054998;28;19936;-75
2022/08/13 14:08:23;;;;;;;;;;;34.00;40.20;;;;;;5055012;28;20235;-75
2022/08/13 14:10:52;;;;;;;;;;;34.40;39.60;;;;;;5055407;28;19909;-75
2022/08/13 14:13:18;;;;;;;;;;;34.60;38.20;;;;;;5054338;28;19909;-75
2022/08/13 14:15:44;;;;;;;;;;;35.90;36.10;;;;;;5054821;28;19916;-72
2022/08/13 14:18:13;;;;;;;;;;;34.60;36.00;;;;;;5053094;28;19944;-73
2022/08/13 14:20:42;;;;;;;;;;;35.00;37.10;;;;;;5054324;28;19935;-75
2022/08/13 14:23:08;;;;;;;;;;;34.70;37.20;;;;;;5053683;28;19909;-74
2022/08/13 14:25:35;;;;;;;;;;;34.80;35.60;;;;;;5054679;28;20366;-75
2022/08/13 14:28:01;;;;;;;;;;;34.90;36.80;;;;;;5054338;28;20316;-75
2022/08/13 14:30:26;;;;;;;;;;;34.60;36.60;;;;;;5060887;28;19931;-73
2022/08/13 14:32:53;;;;;;;;;;;34.30;37.20;;;;;;5053735;28;20020;-73
2022/08/13 14:35:18;;;;;;;;;;;34.80;37.60;;;;;;5054057;28;19912;-74